ELLXEBBR

Guest
Details From ELLX - Luxembourg
To EBBR - Brussels Airport
Flight Number -
Tags generated
Created
Modified
Stats Distance 101 nm / 187 km
Max Altitude 2,200 ft / 671 m
Waypoints 3
Social Downloads 3
Likes 0
Share VATSIM

Download

Looking for another format? Having issues loading an existing format? Contact us
Advertisement - Login to hide

Notes

Basic altitude profile: - Ascent Rate: 2500ft/min - Ascent Speed: 250kts - Cruise Altitude: 35000ft - Cruise Speed: 420kts - Descent Rate: 1500ft/min - Descent Speed: 250kts Options: - Use NATs: yes - Use PACOTS: yes - Use low airways: yes - Use high airways: yes

Route

ELLX HUL EBBR

ID Type Via Altitude (ft/m) Position (lat/lon) Dist (leg/tot) Name
O ELLX APT - 0 / 0 49.62660 / 6.21151 - / 0 nm Luxembourg
HUL VOR - 2,200 / 671 50.74944 / 4.64167 90 / 90 nm HULDENBERG VOR-DME
O EBBR APT - 0 / 0 50.89995 / 4.49281 10 / 101 nm Brussels Airport

Altitude Profile

Advertisement - Login to hide

ELLX

Details ICAO ELLX (LUX)
Name Luxembourg
Region Luxembourg
Timezone Europe/Luxembourg (UTC+2.0)
Stats Elevation 1,234 ft / 376 m (AMSL)
Location 49.626500° 6.211590°
Runways 1
Magnetic Variation 1.995° E

METAR

ELLX 101720Z 08003KT CAVOK 20/06 Q1022 NOSIG

Decode

TAF

TAF ELLX 101700Z 1018/1124 06006KT CAVOK

Decode

Departure Runways

ID Width Length Bearing (true/mag) Surface Threshold Overrun Markings Lighting
06 197 ft / 60 m 13,140 ft / 4,005 m 60.19° / 58.19° ASPHALT 0 ft / 0 m 0 ft / 0 m PREC-APP CENTERLINE EDGE THRESHOLD ALSF-II REIL-OMNI
24 197 ft / 60 m 13,140 ft / 4,005 m 240.22° / 238.23° ASPHALT 0 ft / 0 m 171 ft / 52 m PREC-APP CENTERLINE EDGE THRESHOLD ALSF-II TDZ REIL-OMNI

EBBR

Details ICAO EBBR (BRU)
Name Brussels
Region Belgium
Timezone Europe/Brussels (UTC+2.0)
Stats Elevation 184 ft / 56 m (AMSL)
Location 50.899900° 4.492770°
Runways 3
Magnetic Variation 1.443° E

METAR

EBBR 101720Z 05009KT CAVOK 19/05 Q1024 NOSIG

Decode

TAF

TAF EBBR 101710Z 1018/1124 06007KT CAVOK= TAF EDDF 101700Z 1018/1124 03007KT CAVOK BECMG 1120/1122 VRB03KT

Decode

Destination Runways

ID Width Length Bearing (true/mag) Surface Threshold Overrun Markings Lighting
01 164 ft / 50 m 9,810 ft / 2,990 m 14.44° / 13.00° ASPHALT 157 ft / 48 m 0 ft / 0 m PREC-APP CENTERLINE EDGE THRESHOLD ALSF-II TDZ REIL-OMNI
07L 148 ft / 45 m 11,917 ft / 3,632 m 65.37° / 63.93° ASPHALT 843 ft / 257 m 72 ft / 22 m PREC-APP CENTERLINE EDGE THRESHOLD TDZ REIL-OMNI
07R 148 ft / 45 m 10,522 ft / 3,207 m 69.88° / 68.43° ASPHALT 407 ft / 124 m 0 ft / 0 m PREC-APP CENTERLINE EDGE THRESHOLD REIL-OMNI
19 164 ft / 50 m 9,810 ft / 2,990 m 194.45° / 193.01° ASPHALT 722 ft / 220 m 43 ft / 13 m PREC-APP CENTERLINE EDGE THRESHOLD ALSF-I TDZ REIL-OMNI
25L 148 ft / 45 m 10,522 ft / 3,207 m 249.91° / 248.47° ASPHALT 0 ft / 0 m 13 ft / 4 m PREC-APP CENTERLINE EDGE THRESHOLD ALSF-II TDZ REIL-OMNI
25R 148 ft / 45 m 11,917 ft / 3,632 m 245.41° / 243.97° ASPHALT 981 ft / 299 m 0 ft / 0 m PREC-APP CENTERLINE EDGE THRESHOLD ALSF-II TDZ REIL-OMNI

Approach Navaids

Runway Type Ident Frequency Range Bearing (true/mag) Slope Elevation
01 MM MM - - 14.41° / 12.97 ° - 184 ft / 56 m (AMSL)
01 LOC-ILS IBX 109.90 MHz 18 nm / 33 km 14.39° / 12.95 ° - 184 ft / 56 m (AMSL)
01 GS IBX 109.90 MHz 18 nm / 33 km 14.39° / 12.95 ° 3.00° 184 ft / 56 m (AMSL)
01 OM OM - - 14.41° / 12.97 ° - 184 ft / 56 m (AMSL)
01 DME IBX 109.90 MHz 18 nm / 33 km - - 184 ft / 56 m (AMSL)
19 GS IBM 111.15 MHz 18 nm / 33 km 194.39° / 192.95 ° 3.00° 184 ft / 56 m (AMSL)
19 DME IBM 111.15 MHz 18 nm / 33 km - - 184 ft / 56 m (AMSL)
19 LOC-ILS IBM 111.15 MHz 18 nm / 33 km 194.39° / 192.95 ° - 184 ft / 56 m (AMSL)
25L MM MM - - 249.91° / 248.47 ° - 184 ft / 56 m (AMSL)
25L GS IBL 110.35 MHz 18 nm / 33 km 249.93° / 248.49 ° 3.00° 184 ft / 56 m (AMSL)
25L OM OM - - 249.91° / 248.47 ° - 184 ft / 56 m (AMSL)
25L LOC-ILS IBL 110.35 MHz 18 nm / 33 km 249.93° / 248.49 ° - 184 ft / 56 m (AMSL)
25R LOC-ILS IBR 108.90 MHz 18 nm / 33 km 245.31° / 243.87 ° - 184 ft / 56 m (AMSL)
25R GS IBR 108.90 MHz 18 nm / 33 km 245.31° / 243.87 ° 3.00° 184 ft / 56 m (AMSL)
25R DME IBR 108.90 MHz 18 nm / 33 km - - 184 ft / 56 m (AMSL)
25R MM MM - - 245.18° / 243.74 ° - 184 ft / 56 m (AMSL)

Popular Alternatives